createdAt,value
2022-09-03T00:01:29.902Z,1.80
2022-09-03T00:03:09.245Z,1.70
2022-09-03T00:05:08.430Z,1.70
2022-09-03T00:06:44.341Z,1.70
2022-09-03T00:08:24.307Z,1.77
2022-09-03T00:10:04.700Z,1.70
2022-09-03T00:11:55.382Z,1.60
2022-09-03T00:13:35.837Z,1.75
2022-09-03T00:15:11.609Z,1.50
2022-09-03T00:16:57.298Z,1.70
2022-09-03T00:18:32.321Z,1.75
2022-09-03T00:20:29.297Z,1.98
2022-09-03T00:22:16.090Z,1.52
2022-09-03T00:23:49.648Z,1.75
2022-09-03T00:25:26.741Z,1.90
2022-09-03T00:27:02.345Z,1.75
2022-09-03T00:28:37.386Z,1.83
2022-09-03T00:30:11.170Z,1.80
2022-09-03T00:31:49.135Z,2.00
2022-09-03T00:33:32.768Z,1.75
2022-09-03T00:35:08.477Z,2.22
2022-09-03T00:36:44.478Z,1.70
2022-09-03T00:38:16.590Z,1.90
2022-09-03T00:39:48.797Z,1.60
2022-09-03T00:41:41.891Z,1.75
2022-09-03T00:43:25.636Z,1.63
2022-09-03T00:46:42.223Z,1.92
2022-09-03T00:48:27.939Z,1.90
2022-09-03T00:50:44.601Z,1.67
2022-09-03T00:52:25.715Z,1.90
2022-09-03T00:54:06.807Z,1.83
2022-09-03T00:56:16.416Z,2.13
2022-09-03T00:58:03.594Z,1.77
2022-09-03T00:59:35.613Z,2.53
2022-09-03T01:01:34.181Z,1.90
2022-09-03T01:03:10.198Z,2.20
2022-09-03T01:05:12.134Z,2.10
2022-09-03T01:06:55.923Z,2.00
2022-09-03T01:10:18.451Z,1.90
2022-09-03T01:12:22.159Z,2.10
2022-09-03T01:13:58.282Z,1.90
2022-09-03T01:15:46.066Z,2.05
2022-09-03T01:17:20.780Z,2.10
2022-09-03T01:19:26.047Z,2.22
2022-09-03T01:21:15.605Z,2.08
2022-09-03T01:22:57.769Z,2.10
2022-09-03T01:25:03.259Z,2.60
2022-09-03T01:26:48.922Z,2.20
2022-09-03T01:28:28.151Z,2.53
2022-09-03T01:30:10.760Z,2.17
2022-09-03T01:31:45.594Z,2.33
2022-09-03T01:33:49.384Z,2.30
2022-09-03T01:35:28.520Z,2.25
2022-09-03T01:37:53.262Z,2.35
2022-09-03T01:39:47.183Z,2.15
2022-09-03T01:41:46.833Z,2.67
2022-09-03T01:43:36.695Z,2.88
2022-09-03T01:45:20.342Z,3.15
